createdAt,value
2018-02-13T00:04:11.574Z,0.20
2018-02-13T00:09:15.190Z,0.20
2018-02-13T00:14:18.500Z,0.20
2018-02-13T00:19:25.214Z,0.20
2018-02-13T00:24:34.425Z,0.20
2018-02-13T00:29:41.216Z,0.20
2018-02-13T00:34:48.880Z,0.20
2018-02-13T00:39:58.645Z,0.20
2018-02-13T00:45:05.400Z,0.10
2018-02-13T00:50:11.203Z,0.20
2018-02-13T00:55:39.577Z,0.20
2018-02-13T01:00:59.351Z,0.10
2018-02-13T01:06:19.613Z,0.10
2018-02-13T01:16:48.316Z,0.10
2018-02-13T01:21:54.258Z,0.10
2018-02-13T01:32:17.935Z,0.00
2018-02-13T01:37:37.378Z,0.00
2018-02-13T01:42:43.501Z,-0.10
2018-02-13T01:47:50.506Z,-0.10
2018-02-13T01:53:23.086Z,-0.10
2018-02-13T01:58:27.515Z,-0.10
2018-02-13T02:03:39.719Z,-0.10
2018-02-13T02:14:06.461Z,-0.20
2018-02-13T02:19:11.415Z,-0.20
2018-02-13T02:24:18.988Z,-0.20
2018-02-13T02:29:27.909Z,-0.20
2018-02-13T02:34:38.780Z,-0.20
2018-02-13T02:39:45.347Z,-0.20
2018-02-13T02:44:50.671Z,-0.20
2018-02-13T02:49:55.909Z,-0.20
2018-02-13T02:55:03.394Z,-0.30
2018-02-13T03:00:15.328Z,-0.30
2018-02-13T03:05:21.538Z,-0.30
2018-02-13T03:10:30.554Z,-0.30
2018-02-13T03:15:34.439Z,-0.30
2018-02-13T03:20:46.807Z,-0.30
2018-02-13T03:31:07.834Z,-0.30
2018-02-13T03:36:12.819Z,-0.30
2018-02-13T03:41:17.443Z,-0.30
2018-02-13T03:46:21.029Z,-0.30
2018-02-13T03:51:28.341Z,-0.30
2018-02-13T03:56:40.552Z,-0.30
2018-02-13T04:01:57.034Z,-0.40
2018-02-13T04:07:02.571Z,-0.40
2018-02-13T04:12:07.617Z,-0.40
2018-02-13T04:17:17.032Z,-0.50
2018-02-13T04:22:22.656Z,-0.50
2018-02-13T04:27:28.659Z,-0.50
2018-02-13T04:32:35.027Z,-0.60
2018-02-13T04:37:37.986Z,-0.60
2018-02-13T04:42:44.194Z,-0.80
2018-02-13T04:47:50.458Z,-0.80
2018-02-13T04:52:58.264Z,-0.80
2018-02-13T04:58:01.167Z,-0.90
2018-02-13T05:03:04.903Z,-0.90
2018-02-13T05:08:11.489Z,-1.00
2018-02-13T05:13:16.080Z,-1.00
2018-02-13T05:18:22.714Z,-1.00
2018-02-13T05:23:31.008Z,-1.00
2018-02-13T05:28:33.721Z,-1.00
2018-02-13T05:33:40.242Z,-1.00
2018-02-13T05:38:44.769Z,-1.00
2018-02-13T05:43:49.397Z,-1.00
2018-02-13T05:49:15.741Z,-0.90
2018-02-13T05:54:35.364Z,-0.90
2018-02-13T05:59:39.171Z,-0.90
2018-02-13T06:04:41.947Z,-0.90
2018-02-13T06:09:47.379Z,-0.90
2018-02-13T06:14:50.831Z,-0.90
2018-02-13T06:19:55.616Z,-0.90
2018-02-13T06:25:01.880Z,-0.80
2018-02-13T06:30:05.785Z,-0.80
2018-02-13T06:35:10.547Z,-0.80
2018-02-13T06:40:20.086Z,-0.80
2018-02-13T06:45:40.503Z,-0.80
2018-02-13T06:50:46.357Z,-0.80
2018-02-13T06:55:51.486Z,-0.80
2018-02-13T07:00:55.915Z,-0.80
2018-02-13T07:06:01.356Z,-0.80
2018-02-13T07:11:05.481Z,-0.80
2018-02-13T07:16:08.309Z,-0.80
2018-02-13T07:21:14.244Z,-0.70
2018-02-13T07:26:17.217Z,-0.70
2018-02-13T07:31:24.228Z,-0.70
2018-02-13T07:36:31.167Z,-0.70
2018-02-13T07:41:36.976Z,-0.70
2018-02-13T07:46:45.268Z,-0.60
2018-02-13T07:51:48.612Z,-0.60
2018-02-13T07:56:53.412Z,-0.60
2018-02-13T08:01:57.152Z,-0.60
2018-02-13T08:07:02.382Z,-0.50
2018-02-13T08:12:06.968Z,-0.50
2018-02-13T08:17:15.960Z,-0.50
2018-02-13T08:22:21.328Z,-0.50
2018-02-13T08:27:29.497Z,-0.40
2018-02-13T08:32:36.266Z,-0.40
2018-02-13T08:37:42.129Z,-0.30
2018-02-13T08:47:56.637Z,-0.30
2018-02-13T08:53:08.402Z,-0.30
2018-02-13T08:58:14.302Z,-0.20
2018-02-13T09:03:23.368Z,-0.20
2018-02-13T09:08:31.653Z,-0.10
2018-02-13T09:13:39.938Z,0.00
2018-02-13T09:18:47.228Z,-0.10
2018-02-13T09:29:10.432Z,0.20
2018-02-13T09:34:27.491Z,0.40
2018-02-13T09:39:35.952Z,0.70
2018-02-13T09:45:01.268Z,1.00
2018-02-13T09:50:20.597Z,1.60
2018-02-13T09:55:39.150Z,1.60
2018-02-13T10:00:54.738Z,2.00
2018-02-13T10:06:09.636Z,2.60
2018-02-13T10:11:27.677Z,2.60
2018-02-13T10:16:31.310Z,2.80
2018-02-13T10:21:37.369Z,3.10
2018-02-13T10:32:04.715Z,3.50
2018-02-13T10:37:10.686Z,3.80
2018-02-13T10:47:54.861Z,4.10
2018-02-13T10:53:00.721Z,4.30
2018-02-13T11:09:16.563Z,5.10
2018-02-13T11:14:22.889Z,5.50
2018-02-13T11:24:47.557Z,6.10
2018-02-13T11:29:56.922Z,6.00
2018-02-13T11:35:08.745Z,6.20
2018-02-13T11:40:18.104Z,6.10
2018-02-13T11:45:26.133Z,6.10
2018-02-13T11:50:35.080Z,6.10
2018-02-13T11:55:42.936Z,6.10
2018-02-13T12:00:49.126Z,6.00
2018-02-13T12:05:57.702Z,6.30
2018-02-13T12:11:10.480Z,6.40
2018-02-13T12:16:29.113Z,6.40
2018-02-13T12:27:22.005Z,6.50
2018-02-13T12:32:31.823Z,6.50
2018-02-13T12:37:40.952Z,6.60
2018-02-13T12:42:50.440Z,6.60
2018-02-13T12:48:07.018Z,6.60
2018-02-13T12:53:22.304Z,6.80
2018-02-13T13:04:20.095Z,6.70
2018-02-13T13:09:24.742Z,6.70
2018-02-13T13:14:34.269Z,6.70
2018-02-13T13:19:49.067Z,6.70
2018-02-13T13:30:53.268Z,6.90
2018-02-13T13:36:18.925Z,7.00
2018-02-13T13:47:32.977Z,7.10
2018-02-13T14:21:10.937Z,7.80
2018-02-13T14:56:06.009Z,7.80
2018-02-13T15:44:49.672Z,6.50
2018-02-13T15:50:00.184Z,6.20
2018-02-13T15:55:14.227Z,6.10
2018-02-13T16:05:40.069Z,5.70
2018-02-13T16:16:29.306Z,5.40
2018-02-13T16:21:48.428Z,5.20
2018-02-13T16:26:54.159Z,5.00
2018-02-13T16:32:07.621Z,4.80
2018-02-13T16:42:38.772Z,4.40
2018-02-13T16:55:38.857Z,4.10
2018-02-13T17:00:49.453Z,3.70
2018-02-13T17:06:16.411Z,3.50
2018-02-13T17:11:44.812Z,3.40
2018-02-13T17:16:53.218Z,3.30
2018-02-13T17:32:39.183Z,2.90
2018-02-13T17:37:48.358Z,2.80
2018-02-13T17:42:59.287Z,2.70
2018-02-13T17:48:07.540Z,2.50
2018-02-13T17:53:14.623Z,2.30
2018-02-13T18:03:34.517Z,2.20
2018-02-13T18:08:42.463Z,1.90
2018-02-13T18:13:47.505Z,1.90
2018-02-13T18:19:11.000Z,1.70
2018-02-13T18:24:15.258Z,1.70
2018-02-13T18:42:41.309Z,1.40
2018-02-13T18:58:02.492Z,1.10
2018-02-13T19:08:56.761Z,1.00
2018-02-13T19:14:17.982Z,0.90
2018-02-13T19:30:25.298Z,0.60
2018-02-13T19:35:58.377Z,0.50
2018-02-13T19:41:08.802Z,0.50
2018-02-13T20:16:00.988Z,-0.10
2018-02-13T20:21:10.621Z,-0.10
2018-02-13T20:31:39.239Z,-0.30
2018-02-13T20:43:20.757Z,-0.40
2018-02-13T20:49:08.076Z,-0.50
2018-02-13T21:41:02.566Z,-1.00
2018-02-13T21:46:11.924Z,-1.10
2018-02-13T21:51:25.816Z,-1.20
2018-02-13T21:56:34.906Z,-1.20
2018-02-13T22:01:42.961Z,-1.20
2018-02-13T22:06:52.281Z,-1.30
2018-02-13T22:12:02.554Z,-1.30
2018-02-13T22:17:21.825Z,-1.40
2018-02-13T22:27:47.660Z,-1.50
2018-02-13T22:32:58.254Z,-1.50
2018-02-13T22:38:08.974Z,-1.60
2018-02-13T22:43:14.350Z,-1.60
2018-02-13T22:48:27.691Z,-1.60
2018-02-13T22:53:34.829Z,-1.70
2018-02-13T22:58:41.473Z,-1.80
2018-02-13T23:03:52.705Z,-1.80
2018-02-13T23:08:59.520Z,-1.90
2018-02-13T23:14:06.115Z,-1.90
2018-02-13T23:19:12.883Z,-1.90
2018-02-13T23:24:34.010Z,-1.90
2018-02-13T23:29:37.120Z,-2.00
2018-02-13T23:34:40.925Z,-2.00
2018-02-13T23:39:54.143Z,-2.10
2018-02-13T23:45:03.398Z,-2.10
2018-02-13T23:50:12.347Z,-2.20
2018-02-13T23:55:24.760Z,-2.20
